createdAt,value
2022-08-07T00:00:56.937Z,94980.91
2022-08-07T00:02:57.828Z,94982.97
2022-08-07T00:04:56.301Z,94979.47
2022-08-07T00:06:54.592Z,94972.88
2022-08-07T00:08:54.229Z,94975.75
2022-08-07T00:10:58.135Z,94978.03
2022-08-07T00:12:57.683Z,94978.03
2022-08-07T00:14:59.172Z,94982.97
2022-08-07T00:16:57.708Z,94979.06
2022-08-07T00:18:56.037Z,94982.28
2022-08-07T00:20:57.477Z,94974.72
2022-08-07T00:22:59.757Z,94982.56
2022-08-07T00:24:59.492Z,94984.19
2022-08-07T00:27:06.758Z,94985.25
2022-08-07T00:29:06.153Z,94988.72
2022-08-07T00:31:12.699Z,94992.84
2022-08-07T00:33:14.739Z,94997.16
2022-08-07T00:35:13.085Z,94999.38
2022-08-07T00:37:15.077Z,95000.44
2022-08-07T00:39:16.940Z,95001.44
2022-08-07T00:41:17.024Z,94991.72
2022-08-07T00:44:00.521Z,94998.94
2022-08-07T00:45:34.291Z,94986.81
2022-08-07T00:48:07.792Z,94986.66
2022-08-07T00:50:20.774Z,94982.06
2022-08-07T00:52:11.035Z,94986.13
2022-08-07T00:54:11.073Z,94988.22
2022-08-07T00:56:13.998Z,94983.09
2022-08-07T00:58:14.363Z,94984.16
2022-08-07T01:00:15.738Z,94992.84
2022-08-07T01:02:28.708Z,94994.75
2022-08-07T01:04:27.912Z,94994.59
2022-08-07T01:06:29.725Z,94990.47
2022-08-07T01:08:28.308Z,94996.25
2022-08-07T01:10:26.679Z,94990.44
2022-08-07T01:12:29.628Z,94991.28
2022-08-07T01:14:31.257Z,94987.81
2022-08-07T01:16:31.078Z,94988.44
2022-08-07T01:18:30.987Z,94999.59
2022-08-07T01:20:43.066Z,95008.03
2022-08-07T01:22:46.652Z,95011.97
2022-08-07T01:24:53.256Z,95014.03
2022-08-07T01:26:53.775Z,95012.78
2022-08-07T01:28:55.281Z,95014.44
2022-08-07T01:30:58.315Z,95006.00
2022-08-07T01:32:58.364Z,94999.81
2022-08-07T01:34:59.460Z,95007.44
2022-08-07T01:36:58.465Z,95002.50
2022-08-07T01:39:01.246Z,95015.28
2022-08-07T01:41:05.484Z,95011.19
2022-08-07T01:43:05.972Z,95018.78
2022-08-07T01:45:15.678Z,95010.72
2022-08-07T01:48:20.615Z,95021.03
2022-08-07T01:49:40.928Z,95033.19
2022-08-07T01:52:01.573Z,95040.41
2022-08-07T01:54:12.761Z,95056.69
2022-08-07T01:56:29.008Z,95071.91
2022-08-07T01:58:33.418Z,95095.63
2022-08-07T02:00:35.513Z,95101.66
2022-08-07T02:03:18.835Z,95107.22
2022-08-07T02:05:16.073Z,95103.75
2022-08-07T02:07:50.030Z,95097.56
2022-08-07T02:09:59.098Z,95097.34
2022-08-07T02:12:17.762Z,95096.94
2022-08-07T02:14:36.277Z,95094.47
2022-08-07T02:16:45.474Z,95097.34
2022-08-07T02:18:47.225Z,95103.94
2022-08-07T02:20:51.864Z,95099.03
2022-08-07T02:22:59.645Z,95105.59
2022-08-07T02:25:01.901Z,95085.78
2022-08-07T02:27:07.070Z,95072.56
2022-08-07T02:29:13.673Z,95070.06
2022-08-07T02:31:28.453Z,95054.38
2022-08-07T02:33:33.025Z,95052.13
2022-08-07T02:36:29.579Z,95042.16
2022-08-07T02:38:12.404Z,95039.69
2022-08-07T02:40:30.673Z,95033.31
2022-08-07T02:42:33.984Z,95041.09
2022-08-07T02:44:34.402Z,95039.44
2022-08-07T02:46:37.192Z,95026.63
2022-08-07T02:48:55.071Z,95032.78
2022-08-07T02:50:56.402Z,95037.38
2022-08-07T02:53:03.285Z,95044.38
2022-08-07T02:55:27.368Z,95044.38
2022-08-07T02:57:34.092Z,95049.97
2022-08-07T02:59:35.873Z,95038.63
2022-08-07T03:01:40.502Z,95027.31
2022-08-07T03:03:49.622Z,95018.03
2022-08-07T03:05:55.965Z,95014.72
2022-08-07T03:08:07.395Z,95012.47
2022-08-07T03:10:11.838Z,95009.66
2022-08-07T03:12:21.874Z,95013.22
2022-08-07T03:14:24.026Z,95020.84
2022-08-07T03:16:27.792Z,95023.56
2022-08-07T03:18:34.991Z,95026.84
2022-08-07T03:20:36.191Z,95022.28
2022-08-07T03:22:35.674Z,95026.59
2022-08-07T03:24:34.571Z,95023.69
2022-08-07T03:26:43.059Z,95035.47
2022-08-07T03:28:56.765Z,95025.38
2022-08-07T03:31:12.819Z,95029.72
2022-08-07T03:33:14.532Z,95033.41
2022-08-07T03:35:26.163Z,95020.66
2022-08-07T03:37:27.681Z,95026.41
2022-08-07T03:39:59.113Z,95018.19
2022-08-07T03:41:50.847Z,95026.47
2022-08-07T03:43:57.383Z,95023.34
2022-08-07T03:46:03.756Z,95026.84
2022-08-07T03:48:11.525Z,95028.50
2022-08-07T03:50:11.066Z,95029.53
2022-08-07T03:52:22.307Z,95041.72
2022-08-07T03:54:35.770Z,95044.16
2022-08-07T03:57:04.030Z,95043.09
2022-08-07T03:59:10.156Z,95047.06
2022-08-07T04:01:17.473Z,95049.31
2022-08-07T04:03:18.155Z,95048.41
2022-08-07T04:05:24.173Z,95040.34
2022-08-07T04:07:46.531Z,95035.94
2022-08-07T04:09:51.222Z,95032.63
2022-08-07T04:12:23.355Z,95039.53
2022-08-07T04:14:37.998Z,95038.28
2022-08-07T04:16:35.430Z,95052.50
2022-08-07T04:18:59.643Z,95054.91
2022-08-07T04:20:55.291Z,95051.78
2022-08-07T04:23:02.004Z,95055.81
2022-08-07T04:25:12.629Z,95051.75
2022-08-07T04:27:20.311Z,95052.72
2022-08-07T04:29:19.955Z,95059.19
2022-08-07T04:32:02.346Z,95066.13
2022-08-07T04:33:55.169Z,95074.09
2022-08-07T04:35:56.623Z,95077.72
2022-08-07T04:38:06.796Z,95076.31
2022-08-07T04:40:08.361Z,95072.22
2022-08-07T04:42:07.231Z,95085.47
2022-08-07T04:44:11.763Z,95078.94
2022-08-07T04:46:25.950Z,95077.03
2022-08-07T04:48:36.731Z,95079.09
2022-08-07T04:50:40.746Z,95080.84
2022-08-07T04:52:52.856Z,95076.16
2022-08-07T04:55:15.195Z,95077.09
2022-08-07T04:58:12.051Z,95086.78
2022-08-07T05:00:14.603Z,95087.84
2022-08-07T05:02:20.540Z,95084.94
2022-08-07T05:04:23.709Z,95088.63
2022-08-07T05:06:43.072Z,95083.25
2022-08-07T05:09:00.793Z,95088.84
2022-08-07T05:11:07.066Z,95090.69
2022-08-07T05:14:55.126Z,95096.84
2022-08-07T05:15:40.115Z,95103.09
2022-08-07T05:17:52.068Z,95100.41
2022-08-07T05:19:55.971Z,95104.16
2022-08-07T05:22:01.993Z,95107.47
2022-08-07T05:24:12.815Z,95103.28
2022-08-07T05:26:23.534Z,95102.34
2022-08-07T05:28:27.976Z,95101.59
2022-08-07T05:30:32.780Z,95098.31
2022-08-07T05:32:34.148Z,95098.38
2022-08-07T05:34:33.887Z,95099.56
2022-08-07T05:36:35.483Z,95098.50
2022-08-07T05:39:00.058Z,95106.25
2022-08-07T05:41:01.109Z,95108.66
2022-08-07T05:42:59.906Z,95108.91
2022-08-07T05:45:14.377Z,95110.50
2022-08-07T05:47:20.060Z,95116.31
2022-08-07T05:49:22.586Z,95120.72
2022-08-07T05:51:23.809Z,95118.91
2022-08-07T05:54:13.263Z,95127.00
2022-08-07T05:56:01.856Z,95132.44
2022-08-07T05:58:01.819Z,95131.63
2022-08-07T06:00:01.984Z,95141.97
2022-08-07T06:02:18.801Z,95143.53
2022-08-07T06:04:26.368Z,95142.16
2022-08-07T06:06:32.657Z,95144.47
2022-08-07T06:08:38.090Z,95150.59
2022-08-07T06:10:42.903Z,95145.66
2022-08-07T06:12:42.385Z,95143.22
2022-08-07T06:14:41.112Z,95146.03
2022-08-07T06:16:50.765Z,95150.84
2022-08-07T06:18:59.152Z,95144.44
2022-08-07T06:22:16.648Z,95147.81
2022-08-07T06:23:46.241Z,95150.22
2022-08-07T06:25:36.179Z,95150.38
2022-08-07T06:28:00.098Z,95149.88
2022-08-07T06:29:55.677Z,95150.16
2022-08-07T06:31:57.068Z,95151.88
2022-08-07T06:33:55.600Z,95150.22
2022-08-07T06:36:13.219Z,95152.06
2022-08-07T06:38:25.720Z,95150.53
2022-08-07T06:40:34.453Z,95145.28
2022-08-07T06:42:38.313Z,95150.59
2022-08-07T06:44:39.739Z,95147.81
2022-08-07T06:46:40.844Z,95142.19
2022-08-07T06:48:44.807Z,95141.28
2022-08-07T06:50:50.416Z,95135.13
2022-08-07T06:52:55.948Z,95138.84
2022-08-07T06:55:31.894Z,95139.53
2022-08-07T06:57:19.801Z,95135.44
2022-08-07T07:00:11.415Z,95140.25
2022-08-07T07:02:02.449Z,95137.56
2022-08-07T07:04:16.430Z,95148.09
2022-08-07T07:06:26.142Z,95142.09
2022-08-07T07:08:27.832Z,95142.44
2022-08-07T07:10:30.461Z,95150.84
2022-08-07T07:12:41.723Z,95145.75
2022-08-07T07:14:53.049Z,95140.66
2022-08-07T07:16:54.042Z,95145.66
2022-08-07T07:18:58.888Z,95139.59
2022-08-07T07:20:59.154Z,95134.47
2022-08-07T07:24:08.527Z,95139.81
2022-08-07T07:26:35.183Z,95147.38
2022-08-07T07:27:58.524Z,95141.06
2022-08-07T07:30:09.193Z,95150.13
2022-08-07T07:32:14.484Z,95144.56
2022-08-07T07:34:18.134Z,95141.00
2022-08-07T07:36:18.063Z,95144.19
2022-08-07T07:38:20.790Z,95146.47
2022-08-07T07:42:55.832Z,95137.56
2022-08-07T07:44:56.777Z,95147.47
2022-08-07T07:47:09.300Z,95140.91
2022-08-07T07:50:34.580Z,95144.66
2022-08-07T07:54:17.495Z,95159.97
2022-08-07T07:56:34.602Z,95149.78
2022-08-07T07:58:41.109Z,95149.78
2022-08-07T08:00:48.705Z,95148.75
2022-08-07T08:03:04.500Z,95154.78
2022-08-07T08:05:11.344Z,95154.78
2022-08-07T08:07:20.243Z,95156.94
2022-08-07T08:12:02.389Z,95157.91
2022-08-07T08:14:31.198Z,95165.19
2022-08-07T08:16:37.783Z,95158.38
2022-08-07T08:18:39.674Z,95165.94
2022-08-07T08:20:40.283Z,95159.06
2022-08-07T08:23:01.929Z,95158.81
2022-08-07T08:25:43.053Z,95159.44
2022-08-07T08:27:56.492Z,95157.19
2022-08-07T08:30:04.703Z,95154.25
2022-08-07T08:32:18.619Z,95152.31
2022-08-07T08:34:27.024Z,95146.41
2022-08-07T08:36:30.491Z,95166.00
2022-08-07T08:38:38.592Z,95151.25
2022-08-07T08:40:52.870Z,95158.78
2022-08-07T08:42:57.335Z,95157.38
2022-08-07T08:45:05.495Z,95150.97
2022-08-07T08:47:09.897Z,95156.19
2022-08-07T08:49:33.209Z,95165.44
2022-08-07T08:52:12.971Z,95157.19
2022-08-07T08:54:07.765Z,95155.47
2022-08-07T08:56:09.759Z,95148.72
2022-08-07T08:58:20.416Z,95161.41
2022-08-07T09:00:31.530Z,95148.44
2022-08-07T09:02:43.756Z,95150.06
2022-08-07T09:04:56.813Z,95148.13
2022-08-07T09:07:03.415Z,95153.31
2022-08-07T09:09:20.668Z,95154.41
2022-08-07T09:11:50.653Z,95157.56
2022-08-07T09:14:14.570Z,95155.06
2022-08-07T09:16:30.008Z,95148.94
2022-08-07T09:18:58.569Z,95145.44
2022-08-07T09:21:13.982Z,95137.88
2022-08-07T09:24:31.402Z,95143.50
2022-08-07T09:26:34.545Z,95143.00
2022-08-07T09:30:06.561Z,95140.63
2022-08-07T09:31:04.829Z,95139.47
2022-08-07T09:33:40.722Z,95130.81
2022-08-07T09:36:05.469Z,95127.25
2022-08-07T09:38:23.271Z,95122.44
2022-08-07T09:40:33.178Z,95126.00
2022-08-07T09:42:50.469Z,95132.59
2022-08-07T09:47:25.693Z,95120.25
2022-08-07T09:48:00.132Z,95118.38
2022-08-07T09:50:00.977Z,95116.91
2022-08-07T09:52:33.836Z,95108.50
2022-08-07T09:54:37.415Z,95115.72
2022-08-07T09:57:12.884Z,95110.03
2022-08-07T09:59:31.079Z,95114.22
2022-08-07T10:02:03.209Z,95110.53
2022-08-07T10:04:32.601Z,95114.41
2022-08-07T10:06:55.545Z,95123.34
2022-08-07T10:09:15.416Z,95113.50
2022-08-07T10:12:03.154Z,95105.78
2022-08-07T10:14:07.104Z,95106.06
2022-08-07T10:16:21.443Z,95100.59
2022-08-07T10:18:50.666Z,95099.13
2022-08-07T10:21:19.833Z,95084.78
2022-08-07T10:24:04.906Z,95097.03
2022-08-07T10:26:24.841Z,95103.69
2022-08-07T10:28:43.452Z,95098.28
2022-08-07T10:31:11.290Z,95100.38
2022-08-07T10:34:05.806Z,95103.88
2022-08-07T10:36:17.128Z,95096.16
2022-08-07T10:38:48.448Z,95097.31
2022-08-07T10:40:53.354Z,95088.00
2022-08-07T10:43:02.473Z,95097.50
2022-08-07T10:45:08.785Z,95098.88
2022-08-07T10:47:31.187Z,95098.03
2022-08-07T10:52:33.584Z,95101.94
2022-08-07T10:54:42.534Z,95101.09
2022-08-07T10:57:08.517Z,95101.19
2022-08-07T10:59:22.182Z,95111.47
2022-08-07T11:01:51.379Z,95090.44
2022-08-07T11:04:16.520Z,95100.84
2022-08-07T11:06:26.878Z,95101.44
2022-08-07T11:08:34.114Z,95109.25
2022-08-07T11:10:39.309Z,95099.81
2022-08-07T11:12:44.185Z,95099.22
2022-08-07T11:14:59.822Z,95098.75
2022-08-07T11:17:07.298Z,95091.50
2022-08-07T11:19:12.772Z,95086.63
2022-08-07T11:21:18.957Z,95100.47
2022-08-07T11:23:30.826Z,95091.13
2022-08-07T11:25:48.041Z,95077.41
2022-08-07T11:28:02.466Z,95095.38
2022-08-07T11:30:17.663Z,95096.19
2022-08-07T11:32:25.866Z,95097.78
2022-08-07T11:34:32.430Z,95094.09
2022-08-07T11:36:45.091Z,95097.31
2022-08-07T11:38:51.234Z,95106.59
2022-08-07T11:40:58.596Z,95107.88
2022-08-07T11:43:04.480Z,95117.97
2022-08-07T11:45:14.410Z,95111.22
2022-08-07T11:47:39.044Z,95101.56
2022-08-07T11:50:32.003Z,95118.13
2022-08-07T11:52:47.020Z,95114.75
2022-08-07T11:55:02.610Z,95110.69
2022-08-07T11:57:59.506Z,95110.66
2022-08-07T12:00:10.535Z,95103.34
2022-08-07T12:02:32.250Z,95095.84
2022-08-07T12:04:46.506Z,95093.84
2022-08-07T12:07:00.373Z,95101.00
2022-08-07T12:09:09.198Z,95098.94
2022-08-07T12:11:22.453Z,95101.66
2022-08-07T12:13:37.236Z,95102.31
2022-08-07T12:18:39.278Z,95106.69
2022-08-07T12:20:49.526Z,95110.38
2022-08-07T12:23:09.196Z,95105.91
2022-08-07T12:26:05.351Z,95108.34
2022-08-07T12:28:09.000Z,95103.84
2022-08-07T12:30:10.034Z,95108.94
2022-08-07T12:32:18.638Z,95106.81
2022-08-07T12:34:21.883Z,95095.50
2022-08-07T12:36:30.226Z,95090.31
2022-08-07T12:38:42.916Z,95099.25
2022-08-07T12:40:50.386Z,95089.94
2022-08-07T12:42:55.199Z,95096.50
2022-08-07T12:44:57.558Z,95086.53
2022-08-07T12:47:08.750Z,95088.97
2022-08-07T12:49:39.367Z,95074.28
2022-08-07T12:51:51.272Z,95088.34
2022-08-07T12:54:36.782Z,95079.00
2022-08-07T12:56:34.802Z,95078.09
2022-08-07T12:58:39.309Z,95083.78
2022-08-07T13:00:50.113Z,95081.16
2022-08-07T13:03:09.577Z,95087.28
2022-08-07T13:06:02.708Z,95075.06
2022-08-07T13:08:25.813Z,95060.50
2022-08-07T13:10:51.351Z,95062.06
2022-08-07T13:13:01.567Z,95069.47
2022-08-07T13:15:09.738Z,95063.47
2022-08-07T13:17:21.362Z,95069.75
2022-08-07T13:19:50.675Z,95070.19
2022-08-07T13:22:06.172Z,95067.75
2022-08-07T13:24:25.875Z,95056.44
2022-08-07T13:26:38.467Z,95058.22
2022-08-07T13:28:48.484Z,95056.25
2022-08-07T13:31:02.157Z,95054.25
2022-08-07T13:34:11.694Z,95055.78
2022-08-07T13:35:59.501Z,95049.84
2022-08-07T13:37:58.745Z,95052.34
2022-08-07T13:40:36.154Z,95046.38
2022-08-07T13:42:34.128Z,95055.63
2022-08-07T13:44:39.876Z,95049.84
2022-08-07T13:46:49.966Z,95053.19
2022-08-07T13:48:58.350Z,95049.91
2022-08-07T13:51:01.427Z,95049.41
2022-08-07T13:53:01.218Z,95041.22
2022-08-07T13:55:06.766Z,95046.72
2022-08-07T13:57:14.660Z,95051.47
2022-08-07T13:59:27.740Z,95061.25
2022-08-07T14:01:29.007Z,95070.06
2022-08-07T14:04:05.182Z,95057.56
2022-08-07T14:05:58.071Z,95071.94
2022-08-07T14:08:01.346Z,95066.66
2022-08-07T14:10:12.645Z,95051.88
2022-08-07T14:12:29.593Z,95059.38
2022-08-07T14:14:32.954Z,95060.63
2022-08-07T14:16:35.354Z,95060.88
2022-08-07T14:18:42.760Z,95063.69
2022-08-07T14:20:54.630Z,95062.53
2022-08-07T14:23:01.805Z,95067.34
2022-08-07T14:25:09.640Z,95066.75
2022-08-07T14:27:16.100Z,95053.75
2022-08-07T14:30:05.897Z,95066.56
2022-08-07T14:31:57.940Z,95055.75
2022-08-07T14:34:00.682Z,95068.94
2022-08-07T14:36:00.783Z,95064.00
2022-08-07T14:38:05.494Z,95067.75
2022-08-07T14:40:16.870Z,95066.06
2022-08-07T14:42:32.440Z,95063.25
2022-08-07T14:44:34.772Z,95061.13
2022-08-07T14:46:35.366Z,95059.34
2022-08-07T14:48:37.065Z,95062.09
2022-08-07T14:50:37.670Z,95059.75
2022-08-07T14:52:39.024Z,95063.09
2022-08-07T14:54:42.119Z,95058.97
2022-08-07T14:57:02.091Z,95055.84
2022-08-07T14:59:13.958Z,95060.44
2022-08-07T15:01:42.565Z,95057.59
2022-08-07T15:03:52.259Z,95049.16
2022-08-07T15:05:54.661Z,95050.97
2022-08-07T15:08:13.989Z,95056.34
2022-08-07T15:10:19.634Z,95046.34
2022-08-07T15:12:30.520Z,95049.97
2022-08-07T15:14:31.951Z,95045.34
2022-08-07T15:16:55.775Z,95041.91
2022-08-07T15:19:02.622Z,95040.00
2022-08-07T15:25:53.403Z,95037.47
2022-08-07T15:28:33.173Z,95030.78
2022-08-07T15:32:50.736Z,95030.97
2022-08-07T15:35:04.207Z,95032.88
2022-08-07T15:37:06.913Z,95025.06
2022-08-07T15:39:10.386Z,95033.81
2022-08-07T15:41:23.488Z,95035.94
2022-08-07T15:43:53.069Z,95033.19
2022-08-07T15:45:58.254Z,95037.97
2022-08-07T15:48:04.893Z,95037.78
2022-08-07T15:50:07.098Z,95038.09
2022-08-07T15:52:13.639Z,95039.00
2022-08-07T15:54:15.105Z,95045.16
2022-08-07T15:56:15.233Z,95054.03
2022-08-07T15:58:20.926Z,95059.28
2022-08-07T16:00:31.503Z,95061.66
2022-08-07T16:02:39.706Z,95059.34
2022-08-07T16:04:40.006Z,95053.00
2022-08-07T16:06:43.923Z,95062.94
2022-08-07T16:08:45.863Z,95060.09
2022-08-07T16:10:49.214Z,95061.88
2022-08-07T16:13:05.814Z,95056.34
2022-08-07T16:15:55.209Z,95053.63
2022-08-07T16:18:03.952Z,95057.97
2022-08-07T16:20:33.998Z,95059.91
2022-08-07T16:23:05.474Z,95057.31
2022-08-07T16:25:53.026Z,95061.06
2022-08-07T16:27:59.744Z,95057.72
2022-08-07T16:30:31.870Z,95048.34
2022-08-07T16:32:35.167Z,95065.97
2022-08-07T16:34:56.809Z,95068.00
2022-08-07T16:38:06.628Z,95072.22
2022-08-07T16:40:28.720Z,95074.44
2022-08-07T16:42:42.484Z,95079.94
2022-08-07T16:45:15.030Z,95082.53
2022-08-07T16:48:13.433Z,95097.28
2022-08-07T16:50:39.348Z,95124.97
2022-08-07T16:53:20.751Z,95114.66
2022-08-07T16:55:47.135Z,95105.84
2022-08-07T16:58:02.701Z,95104.53
2022-08-07T17:00:15.090Z,95111.56
2022-08-07T17:03:05.841Z,95118.38
2022-08-07T17:06:02.224Z,95121.66
2022-08-07T17:07:55.760Z,95134.03
2022-08-07T17:10:06.419Z,95130.69
2022-08-07T17:12:34.167Z,95144.69
2022-08-07T17:14:43.142Z,95138.38
2022-08-07T17:16:55.751Z,95147.06
2022-08-07T17:19:04.769Z,95146.69
2022-08-07T17:21:04.119Z,95151.81
2022-08-07T17:23:36.971Z,95153.50
2022-08-07T17:25:51.711Z,95151.34
2022-08-07T17:28:00.343Z,95153.41
2022-08-07T17:30:16.052Z,95155.66
2022-08-07T17:32:30.860Z,95152.56
2022-08-07T17:35:02.754Z,95158.09
2022-08-07T17:37:09.714Z,95158.16
2022-08-07T17:39:20.927Z,95154.91
2022-08-07T17:42:02.452Z,95154.88
2022-08-07T17:44:03.230Z,95159.03
2022-08-07T17:46:13.532Z,95168.53
2022-08-07T17:48:13.280Z,95159.06
2022-08-07T17:50:19.330Z,95166.50
2022-08-07T17:52:30.663Z,95168.31
2022-08-07T17:54:40.244Z,95172.84
2022-08-07T17:57:01.220Z,95173.66
2022-08-07T17:59:09.074Z,95169.91
2022-08-07T18:01:21.254Z,95176.28
2022-08-07T18:03:25.665Z,95174.22
2022-08-07T18:06:03.500Z,95178.47
2022-08-07T18:08:14.021Z,95188.94
2022-08-07T18:10:32.162Z,95197.41
2022-08-07T18:12:43.144Z,95203.00
2022-08-07T18:14:46.621Z,95203.06
2022-08-07T18:16:57.760Z,95208.50
2022-08-07T18:21:08.596Z,95203.59
2022-08-07T18:21:51.837Z,95207.50
2022-08-07T18:24:02.165Z,95202.78
2022-08-07T18:26:15.032Z,95213.00
2022-08-07T18:28:36.109Z,95220.16
2022-08-07T18:30:51.104Z,95234.41
2022-08-07T18:33:55.105Z,95239.38
2022-08-07T18:36:32.668Z,95248.38
2022-08-07T18:38:55.411Z,95248.75
2022-08-07T18:41:10.222Z,95247.66
2022-08-07T18:43:37.227Z,95243.16
2022-08-07T18:46:21.920Z,95242.75
2022-08-07T18:49:03.599Z,95243.47
2022-08-07T18:51:04.165Z,95252.75
2022-08-07T18:53:12.548Z,95256.34
2022-08-07T18:55:42.700Z,95254.47
2022-08-07T18:57:58.632Z,95254.97
2022-08-07T19:00:33.363Z,95253.69
2022-08-07T19:02:36.915Z,95258.75
2022-08-07T19:04:59.589Z,95258.47
2022-08-07T19:07:10.915Z,95264.66
2022-08-07T19:09:55.957Z,95268.13
2022-08-07T19:11:52.053Z,95272.66
2022-08-07T19:14:17.309Z,95273.63
2022-08-07T19:17:01.406Z,95271.47
2022-08-07T19:19:00.904Z,95272.72
2022-08-07T19:21:09.858Z,95272.72
2022-08-07T19:23:29.888Z,95279.56
2022-08-07T19:26:22.683Z,95287.59
2022-08-07T19:28:56.497Z,95284.25
2022-08-07T19:31:00.066Z,95286.91
2022-08-07T19:32:46.307Z,95293.06
2022-08-07T19:34:50.067Z,95289.59
2022-08-07T19:36:53.626Z,95293.06
2022-08-07T19:38:56.737Z,95288.50
2022-08-07T19:41:00.561Z,95291.19
2022-08-07T19:42:59.522Z,95286.44
2022-08-07T19:46:06.249Z,95290.63
2022-08-07T19:47:56.079Z,95284.69
2022-08-07T19:50:53.452Z,95283.16
2022-08-07T19:52:59.141Z,95281.66
2022-08-07T19:55:00.143Z,95286.78
2022-08-07T19:58:03.626Z,95279.41
2022-08-07T19:59:24.591Z,95275.97
2022-08-07T20:01:57.682Z,95275.28
2022-08-07T20:03:58.833Z,95282.06
2022-08-07T20:06:03.262Z,95274.81
2022-08-07T20:08:04.303Z,95275.81
2022-08-07T20:10:37.128Z,95275.03
2022-08-07T20:12:34.326Z,95263.69
2022-08-07T20:14:36.707Z,95271.38
2022-08-07T20:16:56.555Z,95266.25
2022-08-07T20:18:58.961Z,95273.31
2022-08-07T20:20:59.249Z,95262.63
2022-08-07T20:23:23.295Z,95262.84
2022-08-07T20:25:25.691Z,95262.00
2022-08-07T20:27:46.467Z,95265.13
2022-08-07T20:29:58.427Z,95264.28
2022-08-07T20:32:00.068Z,95267.84
2022-08-07T20:34:02.016Z,95272.56
2022-08-07T20:36:03.379Z,95271.34
2022-08-07T20:38:03.051Z,95279.41
2022-08-07T20:40:05.305Z,95275.06
2022-08-07T20:42:23.924Z,95265.59
2022-08-07T20:44:30.368Z,95272.22
2022-08-07T20:46:33.355Z,95263.56
2022-08-07T20:49:55.172Z,95276.75
2022-08-07T20:51:09.616Z,95271.19
2022-08-07T20:53:13.503Z,95271.78
2022-08-07T20:55:16.173Z,95275.91
2022-08-07T20:57:16.087Z,95278.75
2022-08-07T21:00:04.606Z,95275.66
2022-08-07T21:01:55.388Z,95282.69
2022-08-07T21:04:19.472Z,95275.06
2022-08-07T21:06:28.177Z,95280.25
2022-08-07T21:08:38.292Z,95278.41
2022-08-07T21:10:40.645Z,95273.25
2022-08-07T21:12:39.795Z,95282.53
2022-08-07T21:14:53.375Z,95278.16
2022-08-07T21:18:00.741Z,95274.22
2022-08-07T21:19:17.444Z,95281.41
2022-08-07T21:21:21.461Z,95276.84
2022-08-07T21:23:49.271Z,95277.00
2022-08-07T21:26:03.118Z,95279.94
2022-08-07T21:28:10.304Z,95273.97
2022-08-07T21:30:15.492Z,95281.00
2022-08-07T21:32:47.636Z,95282.03
2022-08-07T21:34:48.533Z,95279.97
2022-08-07T21:36:54.182Z,95277.91
2022-08-07T21:39:45.493Z,95273.97
2022-08-07T21:41:37.809Z,95283.63
2022-08-07T21:43:57.067Z,95284.34
2022-08-07T21:46:11.145Z,95287.63
2022-08-07T21:48:27.088Z,95278.53
2022-08-07T21:50:39.775Z,95278.16
2022-08-07T21:52:49.267Z,95278.34
2022-08-07T21:54:59.442Z,95290.88
2022-08-07T21:57:30.858Z,95286.34
2022-08-07T22:00:04.646Z,95284.66
2022-08-07T22:02:11.497Z,95288.59
2022-08-07T22:04:17.743Z,95291.50
2022-08-07T22:06:28.874Z,95294.13
2022-08-07T22:08:38.990Z,95287.13
2022-08-07T22:10:42.295Z,95300.69
2022-08-07T22:12:46.841Z,95299.06
2022-08-07T22:15:00.748Z,95304.44
2022-08-07T22:17:02.052Z,95299.94
2022-08-07T22:19:16.229Z,95299.88
2022-08-07T22:21:20.411Z,95301.16
2022-08-07T22:23:23.736Z,95297.41
2022-08-07T22:25:42.991Z,95296.66
2022-08-07T22:28:07.176Z,95292.34
2022-08-07T22:30:17.154Z,95293.69
2022-08-07T22:32:21.226Z,95298.19
2022-08-07T22:34:35.818Z,95302.13
2022-08-07T22:36:46.565Z,95299.00
2022-08-07T22:38:52.275Z,95303.94
2022-08-07T22:40:58.014Z,95301.69
2022-08-07T22:43:02.188Z,95299.00
2022-08-07T22:45:10.900Z,95299.81
2022-08-07T22:48:01.136Z,95304.69
2022-08-07T22:50:39.059Z,95304.09
2022-08-07T22:53:15.134Z,95303.00
2022-08-07T22:55:30.606Z,95300.09
2022-08-07T22:57:55.604Z,95306.72
2022-08-07T23:00:04.393Z,95302.56
2022-08-07T23:02:27.315Z,95312.25
2022-08-07T23:06:09.664Z,95301.72
2022-08-07T23:07:41.279Z,95310.34
2022-08-07T23:10:05.452Z,95302.31
2022-08-07T23:12:30.606Z,95304.00
2022-08-07T23:14:47.426Z,95295.91
2022-08-07T23:17:15.691Z,95312.34
2022-08-07T23:19:51.091Z,95300.63
2022-08-07T23:21:56.092Z,95307.00
2022-08-07T23:24:11.854Z,95318.00
2022-08-07T23:26:25.068Z,95315.03
2022-08-07T23:28:56.377Z,95313.13
2022-08-07T23:31:18.531Z,95308.38
2022-08-07T23:34:35.500Z,95313.47
2022-08-07T23:36:29.001Z,95308.38
2022-08-07T23:38:54.495Z,95315.13
2022-08-07T23:41:04.049Z,95313.72
2022-08-07T23:43:38.095Z,95306.06
2022-08-07T23:46:01.635Z,95312.84
2022-08-07T23:48:25.421Z,95312.00
2022-08-07T23:50:36.791Z,95306.97
2022-08-07T23:53:01.318Z,95308.75
2022-08-07T23:55:12.686Z,95313.09
2022-08-07T23:57:37.581Z,95306.88
